sensor_id;sensor_type;location;lat;lon;timestamp;P1;durP1;ratioP1;P2;durP2;ratioP2
46318;SDS011;32042;50.916;2.926;2023-12-04T00:00:35;8.30;;;6.17;;
46318;SDS011;32042;50.916;2.926;2023-12-04T00:03:01;8.23;;;5.77;;
46318;SDS011;32042;50.916;2.926;2023-12-04T00:05:27;7.97;;;5.10;;
46318;SDS011;32042;50.916;2.926;2023-12-04T00:07:53;8.17;;;5.83;;
46318;SDS011;32042;50.916;2.926;2023-12-04T00:10:18;9.27;;;5.87;;
46318;SDS011;32042;50.916;2.926;2023-12-04T00:12:44;8.17;;;5.80;;
46318;SDS011;32042;50.916;2.926;2023-12-04T00:15:10;8.30;;;5.63;;
46318;SDS011;32042;50.916;2.926;2023-12-04T00:17:36;7.83;;;5.53;;
46318;SDS011;32042;50.916;2.926;2023-12-04T00:20:05;8.27;;;5.43;;
46318;SDS011;32042;50.916;2.926;2023-12-04T00:22:32;9.07;;;5.83;;
46318;SDS011;32042;50.916;2.926;2023-12-04T00:24:58;7.20;;;5.37;;
46318;SDS011;32042;50.916;2.926;2023-12-04T00:27:24;7.63;;;5.27;;
46318;SDS011;32042;50.916;2.926;2023-12-04T00:29:53;7.13;;;6.00;;
46318;SDS011;32042;50.916;2.926;2023-12-04T00:32:18;8.13;;;5.60;;
46318;SDS011;32042;50.916;2.926;2023-12-04T00:34:44;7.80;;;5.63;;
46318;SDS011;32042;50.916;2.926;2023-12-04T00:37:10;7.93;;;5.40;;
46318;SDS011;32042;50.916;2.926;2023-12-04T00:39:36;8.77;;;5.90;;
46318;SDS011;32042;50.916;2.926;2023-12-04T00:42:02;6.13;;;4.97;;
46318;SDS011;32042;50.916;2.926;2023-12-04T00:44:28;6.97;;;5.73;;
46318;SDS011;32042;50.916;2.926;2023-12-04T00:46:53;7.33;;;5.23;;
46318;SDS011;32042;50.916;2.926;2023-12-04T00:49:19;6.13;;;4.90;;
46318;SDS011;32042;50.916;2.926;2023-12-04T00:51:45;6.97;;;5.37;;
46318;SDS011;32042;50.916;2.926;2023-12-04T00:54:10;6.53;;;5.03;;
46318;SDS011;32042;50.916;2.926;2023-12-04T00:56:40;8.93;;;5.20;;
46318;SDS011;32042;50.916;2.926;2023-12-04T00:59:08;7.43;;;5.47;;
46318;SDS011;32042;50.916;2.926;2023-12-04T01:01:37;6.93;;;5.60;;
46318;SDS011;32042;50.916;2.926;2023-12-04T01:04:03;7.03;;;5.03;;
46318;SDS011;32042;50.916;2.926;2023-12-04T01:06:29;7.60;;;5.67;;
46318;SDS011;32042;50.916;2.926;2023-12-04T01:08:55;6.13;;;5.33;;
46318;SDS011;32042;50.916;2.926;2023-12-04T01:11:21;6.63;;;5.17;;
46318;SDS011;32042;50.916;2.926;2023-12-04T01:13:48;6.97;;;5.80;;
46318;SDS011;32042;50.916;2.926;2023-12-04T01:16:14;6.27;;;4.87;;
46318;SDS011;32042;50.916;2.926;2023-12-04T01:18:42;6.73;;;5.43;;
46318;SDS011;32042;50.916;2.926;2023-12-04T01:21:08;6.97;;;5.03;;
46318;SDS011;32042;50.916;2.926;2023-12-04T01:23:35;7.03;;;4.87;;
46318;SDS011;32042;50.916;2.926;2023-12-04T01:26:04;5.60;;;4.53;;
46318;SDS011;32042;50.916;2.926;2023-12-04T01:28:29;6.37;;;4.93;;
46318;SDS011;32042;50.916;2.926;2023-12-04T01:30:56;7.30;;;5.07;;
46318;SDS011;32042;50.916;2.926;2023-12-04T01:33:21;7.73;;;5.33;;
46318;SDS011;32042;50.916;2.926;2023-12-04T01:35:47;8.23;;;4.97;;
46318;SDS011;32042;50.916;2.926;2023-12-04T01:38:13;6.67;;;4.97;;
46318;SDS011;32042;50.916;2.926;2023-12-04T01:40:38;5.50;;;3.90;;
46318;SDS011;32042;50.916;2.926;2023-12-04T01:43:04;5.80;;;4.53;;
46318;SDS011;32042;50.916;2.926;2023-12-04T01:45:30;5.37;;;4.00;;
46318;SDS011;32042;50.916;2.926;2023-12-04T01:47:56;6.47;;;5.07;;
46318;SDS011;32042;50.916;2.926;2023-12-04T01:50:23;4.93;;;4.33;;
46318;SDS011;32042;50.916;2.926;2023-12-04T01:52:49;5.53;;;4.53;;
46318;SDS011;32042;50.916;2.926;2023-12-04T01:55:17;5.83;;;4.70;;
46318;SDS011;32042;50.916;2.926;2023-12-04T01:57:43;4.90;;;4.13;;
46318;SDS011;32042;50.916;2.926;2023-12-04T02:00:09;5.87;;;4.70;;
46318;SDS011;32042;50.916;2.926;2023-12-04T02:02:40;5.93;;;4.73;;
46318;SDS011;32042;50.916;2.926;2023-12-04T02:05:09;6.67;;;4.60;;
46318;SDS011;32042;50.916;2.926;2023-12-04T02:07:36;5.23;;;4.10;;
46318;SDS011;32042;50.916;2.926;2023-12-04T02:10:02;6.03;;;4.70;;
46318;SDS011;32042;50.916;2.926;2023-12-04T02:12:29;5.70;;;4.67;;
46318;SDS011;32042;50.916;2.926;2023-12-04T02:14:55;6.23;;;4.80;;
46318;SDS011;32042;50.916;2.926;2023-12-04T02:17:22;6.67;;;4.67;;
46318;SDS011;32042;50.916;2.926;2023-12-04T02:19:48;5.67;;;4.57;;
46318;SDS011;32042;50.916;2.926;2023-12-04T02:22:14;7.80;;;4.93;;
46318;SDS011;32042;50.916;2.926;2023-12-04T02:24:40;5.13;;;4.53;;
46318;SDS011;32042;50.916;2.926;2023-12-04T02:27:14;6.23;;;4.43;;
46318;SDS011;32042;50.916;2.926;2023-12-04T02:29:58;6.13;;;4.57;;
46318;SDS011;32042;50.916;2.926;2023-12-04T02:32:28;6.80;;;4.07;;
46318;SDS011;32042;50.916;2.926;2023-12-04T02:34:57;8.20;;;4.57;;
46318;SDS011;32042;50.916;2.926;2023-12-04T02:37:28;5.17;;;4.10;;
46318;SDS011;32042;50.916;2.926;2023-12-04T02:39:55;4.63;;;3.77;;
46318;SDS011;32042;50.916;2.926;2023-12-04T02:42:23;4.93;;;4.33;;
46318;SDS011;32042;50.916;2.926;2023-12-04T02:44:51;6.17;;;3.60;;
46318;SDS011;32042;50.916;2.926;2023-12-04T02:47:18;5.27;;;4.23;;
46318;SDS011;32042;50.916;2.926;2023-12-04T02:49:45;5.57;;;4.17;;
46318;SDS011;32042;50.916;2.926;2023-12-04T02:52:11;7.20;;;4.40;;
46318;SDS011;32042;50.916;2.926;2023-12-04T02:54:38;3.90;;;3.50;;
46318;SDS011;32042;50.916;2.926;2023-12-04T02:57:03;6.03;;;3.90;;
46318;SDS011;32042;50.916;2.926;2023-12-04T02:59:29;5.00;;;4.13;;
46318;SDS011;32042;50.916;2.926;2023-12-04T03:01:55;4.60;;;3.83;;
46318;SDS011;32042;50.916;2.926;2023-12-04T03:04:21;6.03;;;4.50;;
46318;SDS011;32042;50.916;2.926;2023-12-04T03:06:46;5.47;;;4.20;;
46318;SDS011;32042;50.916;2.926;2023-12-04T03:09:12;5.20;;;4.03;;
46318;SDS011;32042;50.916;2.926;2023-12-04T03:11:41;8.70;;;4.53;;
46318;SDS011;32042;50.916;2.926;2023-12-04T03:14:07;6.70;;;4.50;;
46318;SDS011;32042;50.916;2.926;2023-12-04T03:16:33;5.83;;;4.13;;
46318;SDS011;32042;50.916;2.926;2023-12-04T03:18:59;6.13;;;4.33;;
46318;SDS011;32042;50.916;2.926;2023-12-04T03:21:24;6.33;;;4.20;;
46318;SDS011;32042;50.916;2.926;2023-12-04T03:23:50;5.63;;;4.10;;
46318;SDS011;32042;50.916;2.926;2023-12-04T03:26:16;5.67;;;3.97;;
46318;SDS011;32042;50.916;2.926;2023-12-04T03:28:42;6.23;;;4.27;;
46318;SDS011;32042;50.916;2.926;2023-12-04T03:31:08;4.27;;;3.87;;
46318;SDS011;32042;50.916;2.926;2023-12-04T03:33:34;5.30;;;4.63;;
46318;SDS011;32042;50.916;2.926;2023-12-04T03:35:59;6.30;;;4.17;;
46318;SDS011;32042;50.916;2.926;2023-12-04T03:38:25;5.47;;;4.30;;
46318;SDS011;32042;50.916;2.926;2023-12-04T03:40:51;5.63;;;4.53;;
46318;SDS011;32042;50.916;2.926;2023-12-04T03:43:17;5.40;;;4.03;;
46318;SDS011;32042;50.916;2.926;2023-12-04T03:45:42;4.90;;;4.13;;
46318;SDS011;32042;50.916;2.926;2023-12-04T03:48:08;6.10;;;4.47;;
46318;SDS011;32042;50.916;2.926;2023-12-04T03:50:34;5.00;;;3.57;;
46318;SDS011;32042;50.916;2.926;2023-12-04T03:53:00;5.17;;;4.20;;
46318;SDS011;32042;50.916;2.926;2023-12-04T03:55:26;4.43;;;3.77;;
46318;SDS011;32042;50.916;2.926;2023-12-04T03:57:52;6.40;;;4.40;;
46318;SDS011;32042;50.916;2.926;2023-12-04T04:00:18;5.17;;;4.50;;
46318;SDS011;32042;50.916;2.926;2023-12-04T04:02:44;5.63;;;4.27;;
46318;SDS011;32042;50.916;2.926;2023-12-04T04:05:10;5.17;;;4.03;;
46318;SDS011;32042;50.916;2.926;2023-12-04T04:07:36;6.33;;;4.03;;
46318;SDS011;32042;50.916;2.926;2023-12-04T04:10:02;5.03;;;3.97;;
46318;SDS011;32042;50.916;2.926;2023-12-04T04:12:29;5.23;;;4.03;;
46318;SDS011;32042;50.916;2.926;2023-12-04T04:14:55;4.90;;;3.77;;
46318;SDS011;32042;50.916;2.926;2023-12-04T04:17:21;5.30;;;4.30;;
46318;SDS011;32042;50.916;2.926;2023-12-04T04:19:50;5.37;;;4.00;;
46318;SDS011;32042;50.916;2.926;2023-12-04T04:22:16;4.70;;;3.87;;
46318;SDS011;32042;50.916;2.926;2023-12-04T04:24:42;5.67;;;4.07;;
46318;SDS011;32042;50.916;2.926;2023-12-04T04:27:08;5.10;;;4.03;;
46318;SDS011;32042;50.916;2.926;2023-12-04T04:29:33;5.30;;;4.00;;
46318;SDS011;32042;50.916;2.926;2023-12-04T04:31:59;6.07;;;4.20;;
46318;SDS011;32042;50.916;2.926;2023-12-04T04:34:25;5.17;;;4.20;;
46318;SDS011;32042;50.916;2.926;2023-12-04T04:36:51;4.77;;;3.50;;
46318;SDS011;32042;50.916;2.926;2023-12-04T04:39:16;5.07;;;3.97;;
46318;SDS011;32042;50.916;2.926;2023-12-04T04:41:42;5.23;;;4.07;;
46318;SDS011;32042;50.916;2.926;2023-12-04T04:44:09;4.17;;;3.60;;
46318;SDS011;32042;50.916;2.926;2023-12-04T04:46:35;5.20;;;3.73;;
46318;SDS011;32042;50.916;2.926;2023-12-04T04:49:00;4.63;;;3.70;;
46318;SDS011;32042;50.916;2.926;2023-12-04T04:51:27;6.07;;;4.20;;
46318;SDS011;32042;50.916;2.926;2023-12-04T04:53:54;5.83;;;4.00;;
46318;SDS011;32042;50.916;2.926;2023-12-04T04:56:20;5.23;;;3.97;;
46318;SDS011;32042;50.916;2.926;2023-12-04T04:58:46;5.03;;;3.60;;
46318;SDS011;32042;50.916;2.926;2023-12-04T05:01:12;4.77;;;3.97;;
46318;SDS011;32042;50.916;2.926;2023-12-04T05:03:37;5.07;;;3.87;;
46318;SDS011;32042;50.916;2.926;2023-12-04T05:06:03;4.93;;;4.00;;
46318;SDS011;32042;50.916;2.926;2023-12-04T05:08:29;5.67;;;4.30;;
46318;SDS011;32042;50.916;2.926;2023-12-04T05:10:55;5.53;;;4.00;;
46318;SDS011;32042;50.916;2.926;2023-12-04T05:13:20;5.33;;;3.77;;
46318;SDS011;32042;50.916;2.926;2023-12-04T05:15:46;4.83;;;3.80;;
46318;SDS011;32042;50.916;2.926;2023-12-04T05:18:12;5.80;;;4.33;;
46318;SDS011;32042;50.916;2.926;2023-12-04T05:20:38;5.43;;;4.53;;
46318;SDS011;32042;50.916;2.926;2023-12-04T05:23:03;5.43;;;4.37;;
46318;SDS011;32042;50.916;2.926;2023-12-04T05:25:29;5.07;;;3.80;;
46318;SDS011;32042;50.916;2.926;2023-12-04T05:27:55;5.90;;;3.90;;
46318;SDS011;32042;50.916;2.926;2023-12-04T05:30:20;5.83;;;4.20;;
46318;SDS011;32042;50.916;2.926;2023-12-04T05:32:46;4.90;;;3.77;;
46318;SDS011;32042;50.916;2.926;2023-12-04T05:35:12;5.03;;;4.07;;
46318;SDS011;32042;50.916;2.926;2023-12-04T05:37:37;4.87;;;4.00;;
46318;SDS011;32042;50.916;2.926;2023-12-04T05:40:03;5.43;;;3.47;;
46318;SDS011;32042;50.916;2.926;2023-12-04T05:42:30;5.40;;;4.17;;
46318;SDS011;32042;50.916;2.926;2023-12-04T05:44:55;4.70;;;3.73;;
46318;SDS011;32042;50.916;2.926;2023-12-04T05:47:22;5.07;;;3.77;;
46318;SDS011;32042;50.916;2.926;2023-12-04T05:49:48;4.50;;;3.87;;
46318;SDS011;32042;50.916;2.926;2023-12-04T05:52:13;5.27;;;4.00;;
46318;SDS011;32042;50.916;2.926;2023-12-04T05:54:39;5.07;;;3.53;;
46318;SDS011;32042;50.916;2.926;2023-12-04T05:57:05;5.27;;;4.37;;
46318;SDS011;32042;50.916;2.926;2023-12-04T05:59:30;6.00;;;4.30;;
46318;SDS011;32042;50.916;2.926;2023-12-04T06:01:56;4.27;;;3.37;;
46318;SDS011;32042;50.916;2.926;2023-12-04T06:04:22;4.40;;;3.53;;
46318;SDS011;32042;50.916;2.926;2023-12-04T06:06:48;5.03;;;3.70;;
46318;SDS011;32042;50.916;2.926;2023-12-04T06:09:13;4.73;;;3.33;;
46318;SDS011;32042;50.916;2.926;2023-12-04T06:11:42;5.57;;;4.57;;
46318;SDS011;32042;50.916;2.926;2023-12-04T06:14:07;6.43;;;3.93;;
46318;SDS011;32042;50.916;2.926;2023-12-04T06:16:33;4.93;;;3.40;;
46318;SDS011;32042;50.916;2.926;2023-12-04T06:18:59;5.22;;;4.72;;
46318;SDS011;32042;50.916;2.926;2023-12-04T06:21:25;5.03;;;4.07;;
46318;SDS011;32042;50.916;2.926;2023-12-04T06:23:50;4.17;;;3.70;;
46318;SDS011;32042;50.916;2.926;2023-12-04T06:26:16;4.20;;;3.50;;
46318;SDS011;32042;50.916;2.926;2023-12-04T06:28:43;4.47;;;4.03;;
46318;SDS011;32042;50.916;2.926;2023-12-04T06:31:10;4.40;;;3.53;;
46318;SDS011;32042;50.916;2.926;2023-12-04T06:33:37;4.73;;;3.63;;
46318;SDS011;32042;50.916;2.926;2023-12-04T06:36:03;3.73;;;3.20;;
46318;SDS011;32042;50.916;2.926;2023-12-04T06:38:31;5.03;;;4.00;;
46318;SDS011;32042;50.916;2.926;2023-12-04T06:41:00;5.03;;;4.00;;
46318;SDS011;32042;50.916;2.926;2023-12-04T06:43:26;4.77;;;4.00;;
46318;SDS011;32042;50.916;2.926;2023-12-04T06:45:53;5.60;;;4.00;;
46318;SDS011;32042;50.916;2.926;2023-12-04T06:48:22;4.93;;;3.47;;
46318;SDS011;32042;50.916;2.926;2023-12-04T06:50:48;4.37;;;3.90;;
46318;SDS011;32042;50.916;2.926;2023-12-04T06:53:14;4.27;;;3.70;;
46318;SDS011;32042;50.916;2.926;2023-12-04T06:55:39;5.33;;;4.37;;
46318;SDS011;32042;50.916;2.926;2023-12-04T06:58:05;7.33;;;4.10;;
46318;SDS011;32042;50.916;2.926;2023-12-04T07:00:31;10.00;;;3.70;;
46318;SDS011;32042;50.916;2.926;2023-12-04T07:02:57;4.30;;;3.90;;
46318;SDS011;32042;50.916;2.926;2023-12-04T07:05:22;4.33;;;3.63;;
46318;SDS011;32042;50.916;2.926;2023-12-04T07:07:48;4.37;;;3.80;;
46318;SDS011;32042;50.916;2.926;2023-12-04T07:10:15;7.10;;;3.93;;
46318;SDS011;32042;50.916;2.926;2023-12-04T07:12:41;5.77;;;3.90;;
46318;SDS011;32042;50.916;2.926;2023-12-04T07:15:08;5.87;;;3.93;;
46318;SDS011;32042;50.916;2.926;2023-12-04T07:17:35;4.73;;;4.00;;
46318;SDS011;32042;50.916;2.926;2023-12-04T07:20:01;4.57;;;3.80;;
46318;SDS011;32042;50.916;2.926;2023-12-04T07:22:27;5.23;;;4.10;;
46318;SDS011;32042;50.916;2.926;2023-12-04T07:24:52;4.93;;;3.73;;
46318;SDS011;32042;50.916;2.926;2023-12-04T07:27:18;4.83;;;3.77;;
46318;SDS011;32042;50.916;2.926;2023-12-04T07:29:44;5.83;;;4.60;;
46318;SDS011;32042;50.916;2.926;2023-12-04T07:32:10;5.53;;;4.53;;
46318;SDS011;32042;50.916;2.926;2023-12-04T07:34:36;5.93;;;4.13;;
46318;SDS011;32042;50.916;2.926;2023-12-04T07:37:02;6.20;;;4.13;;
46318;SDS011;32042;50.916;2.926;2023-12-04T07:39:27;4.67;;;4.17;;
46318;SDS011;32042;50.916;2.926;2023-12-04T07:41:54;5.03;;;4.40;;
46318;SDS011;32042;50.916;2.926;2023-12-04T07:44:19;4.83;;;4.03;;
46318;SDS011;32042;50.916;2.926;2023-12-04T07:46:45;4.27;;;3.73;;
46318;SDS011;32042;50.916;2.926;2023-12-04T07:49:11;5.13;;;3.97;;
46318;SDS011;32042;50.916;2.926;2023-12-04T07:51:37;6.27;;;4.47;;
46318;SDS011;32042;50.916;2.926;2023-12-04T07:54:03;6.23;;;4.27;;
46318;SDS011;32042;50.916;2.926;2023-12-04T07:56:29;4.70;;;4.20;;
46318;SDS011;32042;50.916;2.926;2023-12-04T07:58:55;6.27;;;5.13;;
46318;SDS011;32042;50.916;2.926;2023-12-04T08:01:21;5.37;;;4.17;;
46318;SDS011;32042;50.916;2.926;2023-12-04T08:03:49;5.53;;;4.23;;
46318;SDS011;32042;50.916;2.926;2023-12-04T08:06:15;6.17;;;4.70;;
46318;SDS011;32042;50.916;2.926;2023-12-04T08:08:43;6.23;;;5.07;;
46318;SDS011;32042;50.916;2.926;2023-12-04T08:11:12;6.17;;;4.47;;
46318;SDS011;32042;50.916;2.926;2023-12-04T08:13:38;6.67;;;4.73;;
46318;SDS011;32042;50.916;2.926;2023-12-04T08:16:04;7.30;;;4.73;;
46318;SDS011;32042;50.916;2.926;2023-12-04T08:18:30;7.13;;;4.73;;
46318;SDS011;32042;50.916;2.926;2023-12-04T08:20:56;7.13;;;4.00;;
46318;SDS011;32042;50.916;2.926;2023-12-04T08:23:25;6.40;;;3.97;;
46318;SDS011;32042;50.916;2.926;2023-12-04T08:25:50;9.23;;;4.70;;
46318;SDS011;32042;50.916;2.926;2023-12-04T08:28:16;5.47;;;4.07;;
46318;SDS011;32042;50.916;2.926;2023-12-04T08:30:42;7.20;;;4.50;;
46318;SDS011;32042;50.916;2.926;2023-12-04T08:33:08;7.90;;;5.00;;
46318;SDS011;32042;50.916;2.926;2023-12-04T08:35:33;7.40;;;4.93;;
46318;SDS011;32042;50.916;2.926;2023-12-04T08:37:59;5.83;;;4.30;;
46318;SDS011;32042;50.916;2.926;2023-12-04T08:40:25;14.37;;;5.87;;
46318;SDS011;32042;50.916;2.926;2023-12-04T08:42:51;12.10;;;5.53;;
46318;SDS011;32042;50.916;2.926;2023-12-04T08:45:17;23.60;;;7.97;;
46318;SDS011;32042;50.916;2.926;2023-12-04T08:47:43;13.93;;;5.93;;
46318;SDS011;32042;50.916;2.926;2023-12-04T08:50:10;16.23;;;6.53;;
46318;SDS011;32042;50.916;2.926;2023-12-04T08:52:35;19.70;;;7.53;;
46318;SDS011;32042;50.916;2.926;2023-12-04T08:55:01;19.10;;;6.73;;
46318;SDS011;32042;50.916;2.926;2023-12-04T08:57:27;8.77;;;5.47;;
46318;SDS011;32042;50.916;2.926;2023-12-04T08:59:53;7.23;;;4.23;;
46318;SDS011;32042;50.916;2.926;2023-12-04T09:02:19;4.70;;;4.00;;
46318;SDS011;32042;50.916;2.926;2023-12-04T09:04:44;4.67;;;4.17;;
46318;SDS011;32042;50.916;2.926;2023-12-04T09:07:10;7.63;;;4.20;;
46318;SDS011;32042;50.916;2.926;2023-12-04T09:09:36;6.57;;;5.00;;
46318;SDS011;32042;50.916;2.926;2023-12-04T09:12:02;5.40;;;4.40;;
46318;SDS011;32042;50.916;2.926;2023-12-04T09:14:27;5.73;;;4.73;;
46318;SDS011;32042;50.916;2.926;2023-12-04T09:16:53;6.77;;;4.60;;
46318;SDS011;32042;50.916;2.926;2023-12-04T09:19:19;5.23;;;4.43;;
46318;SDS011;32042;50.916;2.926;2023-12-04T09:21:45;8.80;;;4.23;;
46318;SDS011;32042;50.916;2.926;2023-12-04T09:24:11;8.27;;;5.73;;
46318;SDS011;32042;50.916;2.926;2023-12-04T09:26:38;8.53;;;5.30;;
46318;SDS011;32042;50.916;2.926;2023-12-04T09:29:04;10.23;;;5.10;;
46318;SDS011;32042;50.916;2.926;2023-12-04T09:31:30;8.83;;;5.20;;
46318;SDS011;32042;50.916;2.926;2023-12-04T09:33:56;10.17;;;5.13;;
46318;SDS011;32042;50.916;2.926;2023-12-04T09:36:21;7.10;;;4.87;;
46318;SDS011;32042;50.916;2.926;2023-12-04T09:38:47;7.27;;;5.17;;
46318;SDS011;32042;50.916;2.926;2023-12-04T09:41:14;11.97;;;6.03;;
46318;SDS011;32042;50.916;2.926;2023-12-04T09:43:43;6.23;;;4.37;;
46318;SDS011;32042;50.916;2.926;2023-12-04T09:46:09;7.33;;;4.40;;
46318;SDS011;32042;50.916;2.926;2023-12-04T09:48:36;7.07;;;4.37;;
46318;SDS011;32042;50.916;2.926;2023-12-04T09:51:03;7.50;;;4.60;;
46318;SDS011;32042;50.916;2.926;2023-12-04T09:53:30;5.03;;;4.47;;
46318;SDS011;32042;50.916;2.926;2023-12-04T09:55:57;6.07;;;4.40;;
46318;SDS011;32042;50.916;2.926;2023-12-04T09:58:27;5.70;;;4.70;;
46318;SDS011;32042;50.916;2.926;2023-12-04T10:00:57;6.60;;;4.13;;
46318;SDS011;32042;50.916;2.926;2023-12-04T10:03:26;5.33;;;4.50;;
46318;SDS011;32042;50.916;2.926;2023-12-04T10:05:53;5.27;;;4.20;;
46318;SDS011;32042;50.916;2.926;2023-12-04T10:08:19;5.40;;;4.40;;
46318;SDS011;32042;50.916;2.926;2023-12-04T10:10:46;5.07;;;4.00;;
46318;SDS011;32042;50.916;2.926;2023-12-04T10:13:12;5.77;;;4.27;;
46318;SDS011;32042;50.916;2.926;2023-12-04T10:15:56;7.87;;;5.50;;
46318;SDS011;32042;50.916;2.926;2023-12-04T10:18:25;5.33;;;4.80;;
46318;SDS011;32042;50.916;2.926;2023-12-04T10:20:57;5.90;;;4.40;;
46318;SDS011;32042;50.916;2.926;2023-12-04T10:26:09;5.47;;;4.37;;
46318;SDS011;32042;50.916;2.926;2023-12-04T10:28:35;6.63;;;4.20;;
46318;SDS011;32042;50.916;2.926;2023-12-04T10:31:01;7.63;;;4.93;;
46318;SDS011;32042;50.916;2.926;2023-12-04T10:33:28;6.93;;;5.07;;
46318;SDS011;32042;50.916;2.926;2023-12-04T10:35:54;9.43;;;4.90;;
46318;SDS011;32042;50.916;2.926;2023-12-04T10:38:20;7.97;;;4.73;;
46318;SDS011;32042;50.916;2.926;2023-12-04T10:40:46;6.60;;;4.47;;
46318;SDS011;32042;50.916;2.926;2023-12-04T10:43:15;6.67;;;4.90;;
46318;SDS011;32042;50.916;2.926;2023-12-04T10:45:45;10.03;;;4.90;;
46318;SDS011;32042;50.916;2.926;2023-12-04T10:48:12;4.63;;;4.17;;
46318;SDS011;32042;50.916;2.926;2023-12-04T10:50:45;6.33;;;4.67;;
46318;SDS011;32042;50.916;2.926;2023-12-04T10:53:12;6.40;;;4.23;;
46318;SDS011;32042;50.916;2.926;2023-12-04T10:55:39;4.97;;;4.10;;
46318;SDS011;32042;50.916;2.926;2023-12-04T10:58:06;6.10;;;4.83;;
46318;SDS011;32042;50.916;2.926;2023-12-04T11:00:36;5.83;;;4.20;;
46318;SDS011;32042;50.916;2.926;2023-12-04T11:03:15;3.97;;;3.57;;
46318;SDS011;32042;50.916;2.926;2023-12-04T11:06:02;3.77;;;3.47;;
46318;SDS011;32042;50.916;2.926;2023-12-04T11:08:34;3.90;;;3.50;;
46318;SDS011;32042;50.916;2.926;2023-12-04T11:11:05;4.57;;;3.50;;
46318;SDS011;32042;50.916;2.926;2023-12-04T11:13:34;3.83;;;3.13;;
46318;SDS011;32042;50.916;2.926;2023-12-04T11:16:07;5.60;;;4.70;;
46318;SDS011;32042;50.916;2.926;2023-12-04T11:18:36;3.90;;;3.50;;
46318;SDS011;32042;50.916;2.926;2023-12-04T11:21:04;3.37;;;2.93;;
46318;SDS011;32042;50.916;2.926;2023-12-04T11:23:34;4.33;;;2.90;;
46318;SDS011;32042;50.916;2.926;2023-12-04T11:26:00;4.97;;;3.07;;
46318;SDS011;32042;50.916;2.926;2023-12-04T11:28:29;4.97;;;2.80;;
46318;SDS011;32042;50.916;2.926;2023-12-04T11:30:57;3.53;;;3.23;;
46318;SDS011;32042;50.916;2.926;2023-12-04T11:33:23;5.70;;;2.80;;
46318;SDS011;32042;50.916;2.926;2023-12-04T11:35:50;3.33;;;2.87;;
46318;SDS011;32042;50.916;2.926;2023-12-04T11:38:16;3.20;;;2.67;;
46318;SDS011;32042;50.916;2.926;2023-12-04T11:40:42;3.73;;;3.33;;
46318;SDS011;32042;50.916;2.926;2023-12-04T11:43:27;3.77;;;3.13;;
46318;SDS011;32042;50.916;2.926;2023-12-04T11:46:41;2.53;;;2.30;;
46318;SDS011;32042;50.916;2.926;2023-12-04T11:48:50;6.27;;;5.67;;
46318;SDS011;32042;50.916;2.926;2023-12-04T11:54:14;3.63;;;3.30;;
46318;SDS011;32042;50.916;2.926;2023-12-04T11:57:01;3.20;;;2.90;;
46318;SDS011;32042;50.916;2.926;2023-12-04T11:59:39;2.53;;;2.33;;
46318;SDS011;32042;50.916;2.926;2023-12-04T12:02:07;3.00;;;2.20;;
46318;SDS011;32042;50.916;2.926;2023-12-04T12:04:33;4.43;;;2.83;;
46318;SDS011;32042;50.916;2.926;2023-12-04T12:07:00;3.80;;;2.70;;
46318;SDS011;32042;50.916;2.926;2023-12-04T12:09:30;2.80;;;2.60;;
46318;SDS011;32042;50.916;2.926;2023-12-04T12:12:00;3.17;;;2.80;;
46318;SDS011;32042;50.916;2.926;2023-12-04T12:14:26;4.10;;;3.10;;
46318;SDS011;32042;50.916;2.926;2023-12-04T12:16:54;3.20;;;2.90;;
46318;SDS011;32042;50.916;2.926;2023-12-04T12:19:20;2.97;;;2.57;;
46318;SDS011;32042;50.916;2.926;2023-12-04T12:21:47;2.67;;;2.47;;
46318;SDS011;32042;50.916;2.926;2023-12-04T12:24:14;3.13;;;2.73;;
46318;SDS011;32042;50.916;2.926;2023-12-04T12:26:40;4.57;;;2.73;;
46318;SDS011;32042;50.916;2.926;2023-12-04T12:29:08;3.00;;;2.60;;
46318;SDS011;32042;50.916;2.926;2023-12-04T12:31:34;5.00;;;3.00;;
46318;SDS011;32042;50.916;2.926;2023-12-04T12:34:00;2.70;;;2.30;;
46318;SDS011;32042;50.916;2.926;2023-12-04T12:36:26;4.00;;;2.93;;
46318;SDS011;32042;50.916;2.926;2023-12-04T12:38:52;2.57;;;2.33;;
46318;SDS011;32042;50.916;2.926;2023-12-04T12:41:18;3.47;;;2.20;;
46318;SDS011;32042;50.916;2.926;2023-12-04T12:43:45;3.27;;;2.10;;
46318;SDS011;32042;50.916;2.926;2023-12-04T12:46:12;3.83;;;2.70;;
46318;SDS011;32042;50.916;2.926;2023-12-04T12:48:38;2.83;;;2.50;;
46318;SDS011;32042;50.916;2.926;2023-12-04T12:51:04;5.50;;;2.57;;
46318;SDS011;32042;50.916;2.926;2023-12-04T12:53:36;2.50;;;2.30;;
46318;SDS011;32042;50.916;2.926;2023-12-04T12:56:02;2.70;;;2.50;;
46318;SDS011;32042;50.916;2.926;2023-12-04T12:58:28;2.40;;;2.20;;
46318;SDS011;32042;50.916;2.926;2023-12-04T13:00:54;2.60;;;2.40;;
46318;SDS011;32042;50.916;2.926;2023-12-04T13:03:21;2.67;;;2.47;;
46318;SDS011;32042;50.916;2.926;2023-12-04T13:05:47;2.53;;;2.33;;
46318;SDS011;32042;50.916;2.926;2023-12-04T13:08:13;2.60;;;2.37;;
46318;SDS011;32042;50.916;2.926;2023-12-04T13:10:40;2.53;;;2.30;;
46318;SDS011;32042;50.916;2.926;2023-12-04T13:13:10;3.50;;;2.90;;
46318;SDS011;32042;50.916;2.926;2023-12-04T13:15:36;2.70;;;2.50;;
46318;SDS011;32042;50.916;2.926;2023-12-04T13:18:03;3.00;;;2.20;;
46318;SDS011;32042;50.916;2.926;2023-12-04T13:20:29;3.63;;;2.40;;
46318;SDS011;32042;50.916;2.926;2023-12-04T13:22:54;5.23;;;2.50;;
46318;SDS011;32042;50.916;2.926;2023-12-04T13:25:20;3.60;;;2.37;;
46318;SDS011;32042;50.916;2.926;2023-12-04T13:27:46;2.60;;;2.40;;
46318;SDS011;32042;50.916;2.926;2023-12-04T13:30:12;3.70;;;2.57;;
46318;SDS011;32042;50.916;2.926;2023-12-04T13:32:38;3.20;;;2.70;;
46318;SDS011;32042;50.916;2.926;2023-12-04T13:35:04;4.30;;;2.57;;
46318;SDS011;32042;50.916;2.926;2023-12-04T13:37:31;3.50;;;3.20;;
46318;SDS011;32042;50.916;2.926;2023-12-04T13:39:58;3.73;;;2.87;;
46318;SDS011;32042;50.916;2.926;2023-12-04T13:42:26;2.90;;;2.43;;
46318;SDS011;32042;50.916;2.926;2023-12-04T13:45:11;4.73;;;2.70;;
46318;SDS011;32042;50.916;2.926;2023-12-04T13:47:40;5.23;;;2.90;;
46318;SDS011;32042;50.916;2.926;2023-12-04T13:50:06;3.33;;;2.67;;
46318;SDS011;32042;50.916;2.926;2023-12-04T13:52:35;3.90;;;2.63;;
46318;SDS011;32042;50.916;2.926;2023-12-04T13:55:02;4.30;;;2.57;;
46318;SDS011;32042;50.916;2.926;2023-12-04T13:57:38;3.17;;;2.90;;
46318;SDS011;32042;50.916;2.926;2023-12-04T14:00:19;3.93;;;2.63;;
46318;SDS011;32042;50.916;2.926;2023-12-04T14:02:45;3.40;;;2.37;;
46318;SDS011;32042;50.916;2.926;2023-12-04T14:05:11;3.37;;;2.60;;
46318;SDS011;32042;50.916;2.926;2023-12-04T14:07:40;2.90;;;2.57;;
46318;SDS011;32042;50.916;2.926;2023-12-04T14:10:08;4.17;;;3.10;;
46318;SDS011;32042;50.916;2.926;2023-12-04T14:12:34;3.30;;;3.00;;
46318;SDS011;32042;50.916;2.926;2023-12-04T14:15:01;3.83;;;2.90;;
46318;SDS011;32042;50.916;2.926;2023-12-04T14:17:28;3.43;;;2.67;;
46318;SDS011;32042;50.916;2.926;2023-12-04T14:19:54;3.77;;;3.10;;
46318;SDS011;32042;50.916;2.926;2023-12-04T14:22:20;3.53;;;3.00;;
46318;SDS011;32042;50.916;2.926;2023-12-04T14:24:45;3.27;;;2.97;;
46318;SDS011;32042;50.916;2.926;2023-12-04T14:27:11;4.07;;;2.43;;
46318;SDS011;32042;50.916;2.926;2023-12-04T14:29:37;6.83;;;3.20;;
46318;SDS011;32042;50.916;2.926;2023-12-04T14:32:05;3.27;;;2.97;;
46318;SDS011;32042;50.916;2.926;2023-12-04T14:34:31;4.17;;;3.30;;
46318;SDS011;32042;50.916;2.926;2023-12-04T14:36:57;3.23;;;2.93;;
46318;SDS011;32042;50.916;2.926;2023-12-04T14:39:23;3.90;;;3.00;;
46318;SDS011;32042;50.916;2.926;2023-12-04T14:41:49;6.10;;;3.30;;
46318;SDS011;32042;50.916;2.926;2023-12-04T14:44:16;4.70;;;3.33;;
46318;SDS011;32042;50.916;2.926;2023-12-04T14:46:41;5.13;;;3.40;;
46318;SDS011;32042;50.916;2.926;2023-12-04T14:49:07;4.03;;;3.40;;
46318;SDS011;32042;50.916;2.926;2023-12-04T14:51:33;3.73;;;2.87;;